Terminal Aerodrome Forecast
Issued by NWS Denver/Boulder, CO

Home | Current Version | Previous Version | Text Only | Print | Product List | Glossary On
Versions: 1 2 3 4 5 6 7 8 9 10 11 12 13 14 15 16 17 18 19 20 21 22 23 24 25 26 27 28 29 30 31 32 33 34
000
FTUS45 KBOU 110309 AAC
TAFDEN
TAF AMD
KDEN 110309Z 1103/1206 16007KT P6SM FEW080 SCT150 BKN220
     FM111000 08009KT P6SM VCSH SCT030 BKN050 OVC100
     FM111300 12007KT P6SM VCSH SCT015 BKN030
     FM111700 15008KT P6SM SCT040 SCT100
     FM111800 12010KT P6SM FEW080
     FM120100 18010KT P6SM FEW150=

USA.gov is the U.S. government's official web portal to all federal, state and local government web resources and services.